createdAt,value
2022-11-23T00:01:25.543Z,99378.06
2022-11-23T00:03:55.686Z,99371.88
2022-11-23T00:06:23.457Z,99282.09
2022-11-23T00:08:51.062Z,99276.81
2022-11-23T00:11:19.410Z,99365.72
2022-11-23T00:13:47.099Z,99359.53
2022-11-23T00:16:25.066Z,99378.06
2022-11-23T00:18:56.734Z,99364.84
2022-11-23T00:21:24.857Z,99361.31
2022-11-23T00:23:51.374Z,99262.69
2022-11-23T00:26:19.082Z,99291.72
2022-11-23T00:28:47.269Z,99343.66
2022-11-23T00:31:16.808Z,99307.56
2022-11-23T00:33:48.092Z,99363.91
2022-11-23T00:36:16.479Z,99313.72
2022-11-23T00:38:44.055Z,99321.66
2022-11-23T00:41:21.008Z,99355.09
2022-11-23T00:43:48.241Z,99366.50
2022-11-23T00:46:21.780Z,99278.47
2022-11-23T00:48:50.273Z,99382.38
2022-11-23T00:51:23.165Z,99314.56
2022-11-23T00:53:51.309Z,99374.44
2022-11-23T00:56:18.837Z,99320.75
2022-11-23T00:58:50.207Z,99309.31
2022-11-23T01:01:19.431Z,99333.97
2022-11-23T01:03:49.927Z,99367.41
2022-11-23T01:06:19.518Z,99340.09
2022-11-23T01:08:51.328Z,99376.22
2022-11-23T01:11:19.044Z,99313.69
2022-11-23T01:13:45.726Z,99321.63
2022-11-23T01:16:23.900Z,99336.59
2022-11-23T01:18:59.137Z,99378.00
2022-11-23T01:21:27.496Z,99351.56
2022-11-23T01:23:54.669Z,99322.53
2022-11-23T01:26:22.145Z,99385.03
2022-11-23T01:28:48.797Z,99350.66
2022-11-23T01:31:18.065Z,99327.75
2022-11-23T01:33:45.491Z,99323.34
2022-11-23T01:36:14.353Z,99421.13
2022-11-23T01:38:42.303Z,99346.28
2022-11-23T01:41:13.916Z,99425.56
2022-11-23T01:43:40.487Z,99352.50
2022-11-23T01:46:08.785Z,99333.97
2022-11-23T01:49:04.926Z,99353.38
2022-11-23T01:51:35.886Z,99342.81
2022-11-23T01:54:07.277Z,99354.25
2022-11-23T01:56:39.771Z,99357.78
2022-11-23T01:59:12.114Z,99329.56
2022-11-23T02:01:38.856Z,99333.97
2022-11-23T02:04:09.251Z,99446.75
2022-11-23T02:06:36.575Z,99330.50
2022-11-23T02:09:03.447Z,99449.44
2022-11-23T02:11:30.017Z,99356.06
2022-11-23T02:13:57.115Z,99377.19
2022-11-23T02:16:23.800Z,99374.56
2022-11-23T02:18:52.159Z,99390.41
2022-11-23T02:21:21.338Z,99372.78
2022-11-23T02:24:07.926Z,99455.59
2022-11-23T02:27:03.940Z,99459.16
2022-11-23T02:29:38.222Z,99453.88
2022-11-23T02:32:21.659Z,99451.22
2022-11-23T02:35:24.921Z,99458.28
2022-11-23T02:37:57.469Z,99450.38
2022-11-23T02:40:35.969Z,99423.94
2022-11-23T02:43:03.103Z,99433.63
2022-11-23T02:45:54.478Z,99461.84
2022-11-23T02:48:28.330Z,99416.00
2022-11-23T02:50:55.148Z,99369.34
2022-11-23T02:53:25.004Z,99382.56
2022-11-23T02:55:56.418Z,99401.09
2022-11-23T02:58:24.276Z,99361.44
2022-11-23T03:00:51.191Z,99360.56
2022-11-23T03:03:19.544Z,99392.28
2022-11-23T03:05:46.135Z,99395.78
2022-11-23T03:08:12.605Z,99370.22
2022-11-23T03:10:41.328Z,99365.81
2022-11-23T03:13:08.524Z,99445.09
2022-11-23T03:15:37.419Z,99440.69
2022-11-23T03:18:05.146Z,99345.53
2022-11-23T03:20:34.385Z,99390.44
2022-11-23T03:23:00.920Z,99349.91
2022-11-23T03:25:28.576Z,99452.06
2022-11-23T03:27:56.452Z,99415.97
2022-11-23T03:30:23.061Z,99426.53
2022-11-23T03:32:49.736Z,99455.63
2022-11-23T03:35:18.080Z,99425.63
2022-11-23T03:38:03.393Z,99386.88
2022-11-23T03:40:30.034Z,99437.09
2022-11-23T03:43:15.382Z,99401.88
2022-11-23T03:45:43.173Z,99389.53
2022-11-23T03:48:09.798Z,99357.81
2022-11-23T03:50:36.351Z,99378.97
2022-11-23T03:53:03.900Z,99446.81
2022-11-23T03:55:31.926Z,99448.56
2022-11-23T03:58:01.436Z,99402.75
2022-11-23T04:00:31.941Z,99481.19
2022-11-23T04:02:59.889Z,99399.25
2022-11-23T04:05:44.860Z,99429.19
2022-11-23T04:08:37.188Z,99448.59
2022-11-23T04:11:10.023Z,99409.81
2022-11-23T04:13:38.603Z,99391.31
2022-11-23T04:16:07.172Z,99507.69
2022-11-23T04:18:33.629Z,99412.50
2022-11-23T04:21:01.204Z,99414.22
2022-11-23T04:23:29.256Z,99412.47
2022-11-23T04:25:56.011Z,99441.53
2022-11-23T04:28:23.979Z,99453.03
2022-11-23T04:30:51.958Z,99446.81
2022-11-23T04:33:20.141Z,99408.94
2022-11-23T04:35:46.788Z,99444.19
2022-11-23T04:38:14.148Z,99416.88
2022-11-23T04:40:42.178Z,99408.06
2022-11-23T04:43:09.573Z,99376.34
2022-11-23T04:45:40.960Z,99450.38
2022-11-23T04:48:14.772Z,99420.44
2022-11-23T04:50:45.736Z,99394.91
2022-11-23T04:53:16.694Z,99416.91
2022-11-23T04:55:48.039Z,99483.88
2022-11-23T04:58:17.255Z,99447.75
2022-11-23T05:00:45.497Z,99436.28
2022-11-23T05:03:13.788Z,99420.44
2022-11-23T05:05:41.969Z,99476.81
2022-11-23T05:08:09.495Z,99453.91
2022-11-23T05:10:46.165Z,99392.22
2022-11-23T05:13:13.397Z,99431.88
2022-11-23T05:15:40.002Z,99454.78
2022-11-23T05:18:07.370Z,99401.94
2022-11-23T05:20:35.581Z,99365.81
2022-11-23T05:23:02.428Z,99362.28
2022-11-23T05:25:30.446Z,99416.06
2022-11-23T05:28:11.451Z,99403.72
2022-11-23T05:30:49.341Z,99433.69
2022-11-23T05:33:15.900Z,99431.91
2022-11-23T05:35:43.781Z,99487.44
2022-11-23T05:38:10.315Z,99400.19
2022-11-23T05:40:37.407Z,99444.25
2022-11-23T05:43:05.031Z,99441.63
2022-11-23T05:45:31.645Z,99382.59
2022-11-23T05:47:59.369Z,99398.44
2022-11-23T05:50:45.215Z,99415.19
2022-11-23T05:53:32.897Z,99376.44
2022-11-23T05:56:07.371Z,99463.66
2022-11-23T05:58:40.683Z,99400.22
2022-11-23T06:01:07.810Z,99426.66
2022-11-23T06:03:36.403Z,99469.81
2022-11-23T06:06:03.204Z,99444.25
2022-11-23T06:08:37.117Z,99461.00
2022-11-23T06:11:05.736Z,99397.53
2022-11-23T06:13:32.931Z,99476.00
2022-11-23T06:16:00.526Z,99407.25
2022-11-23T06:18:35.500Z,99404.63
2022-11-23T06:21:02.238Z,99454.88
2022-11-23T06:23:28.816Z,99400.25
2022-11-23T06:26:01.780Z,99431.09
2022-11-23T06:28:31.309Z,99417.88
2022-11-23T06:31:03.251Z,99410.81
2022-11-23T06:33:31.173Z,99401.13
2022-11-23T06:36:00.241Z,99512.22
2022-11-23T06:38:33.642Z,99378.22
2022-11-23T06:41:09.528Z,99516.63
2022-11-23T06:43:36.122Z,99462.84
2022-11-23T06:46:07.543Z,99483.13
2022-11-23T06:48:38.098Z,99428.47
2022-11-23T06:51:06.087Z,99402.91
2022-11-23T06:53:33.795Z,99430.25
2022-11-23T06:56:04.745Z,99512.25
2022-11-23T06:58:32.640Z,99425.84
2022-11-23T07:01:09.074Z,99536.06
2022-11-23T07:03:41.458Z,99530.78
2022-11-23T07:06:20.401Z,99447.88
2022-11-23T07:08:48.231Z,99455.81
2022-11-23T07:11:27.176Z,99432.91
2022-11-23T07:13:53.729Z,99479.63
2022-11-23T07:16:21.987Z,99469.06
2022-11-23T07:18:51.588Z,99543.13
2022-11-23T07:21:18.186Z,99470.81
2022-11-23T07:23:45.998Z,99522.84
2022-11-23T07:26:12.794Z,99442.59
2022-11-23T07:28:39.429Z,99552.84
2022-11-23T07:31:06.240Z,99507.84
2022-11-23T07:33:32.801Z,99507.84
2022-11-23T07:36:02.790Z,99496.41
2022-11-23T07:38:31.081Z,99569.63
2022-11-23T07:41:01.573Z,99490.22
2022-11-23T07:43:46.919Z,99477.00
2022-11-23T07:46:13.844Z,99442.59
2022-11-23T07:48:40.318Z,99521.97
2022-11-23T07:51:06.878Z,99502.56
2022-11-23T07:53:33.468Z,99584.63
2022-11-23T07:56:00.047Z,99555.50
2022-11-23T07:58:26.654Z,99594.31
2022-11-23T08:00:53.544Z,99581.97
2022-11-23T08:03:27.936Z,99592.56
2022-11-23T08:05:55.840Z,99600.50
2022-11-23T08:08:23.010Z,99599.63
2022-11-23T08:10:53.389Z,99499.03
2022-11-23T08:13:21.583Z,99512.28
2022-11-23T08:15:53.762Z,99452.28
2022-11-23T08:18:23.977Z,99552.84
2022-11-23T08:20:50.478Z,99496.38
2022-11-23T08:23:18.102Z,99601.34
2022-11-23T08:25:44.893Z,99512.25
2022-11-23T08:28:11.739Z,99465.50
2022-11-23T08:30:38.858Z,99528.97
2022-11-23T08:33:07.101Z,99533.34
2022-11-23T08:35:35.154Z,99574.78
2022-11-23T08:38:02.351Z,99554.41
2022-11-23T08:40:30.171Z,99517.31
2022-11-23T08:42:56.688Z,99513.75
2022-11-23T08:45:23.289Z,99577.19
2022-11-23T08:47:50.922Z,99509.34
2022-11-23T08:50:17.786Z,99593.13
2022-11-23T08:52:44.359Z,99536.69
2022-11-23T08:55:11.735Z,99531.25
2022-11-23T08:57:38.612Z,99438.56
2022-11-23T09:00:06.064Z,99536.91
2022-11-23T09:02:32.622Z,99531.63
2022-11-23T09:04:59.139Z,99519.41
2022-11-23T09:07:26.688Z,99538.19
2022-11-23T09:09:53.249Z,99531.25
2022-11-23T09:12:19.740Z,99573.72
2022-11-23T09:14:46.449Z,99593.16
2022-11-23T09:17:13.000Z,99542.97
2022-11-23T09:19:39.497Z,99551.78
2022-11-23T09:22:06.124Z,99565.03
2022-11-23T09:24:33.002Z,99512.13
2022-11-23T09:26:59.738Z,99595.94
2022-11-23T09:29:26.593Z,99490.09
2022-11-23T09:31:53.095Z,99549.19
2022-11-23T09:34:19.980Z,99521.84
2022-11-23T09:36:46.903Z,99568.59
2022-11-23T09:39:14.764Z,99512.13
2022-11-23T09:41:47.225Z,99512.13
2022-11-23T09:44:24.370Z,99586.25
2022-11-23T09:47:15.324Z,99609.19
2022-11-23T09:49:59.849Z,99470.66
2022-11-23T09:52:26.463Z,99558.69
2022-11-23T09:54:57.116Z,99485.53
2022-11-23T09:57:31.378Z,99500.53
2022-11-23T10:00:05.771Z,99596.59
2022-11-23T10:02:37.243Z,99599.22
2022-11-23T10:05:04.602Z,99481.69
2022-11-23T10:08:02.195Z,99498.91
2022-11-23T10:10:44.830Z,99559.84
2022-11-23T10:13:13.959Z,99572.31
2022-11-23T10:15:56.336Z,99491.88
2022-11-23T10:18:57.388Z,99565.03
2022-11-23T10:21:34.761Z,99493.41
2022-11-23T10:24:19.157Z,99458.31
2022-11-23T10:26:50.052Z,99493.38
2022-11-23T10:29:31.139Z,99465.63
2022-11-23T10:31:58.395Z,99473.97
2022-11-23T10:34:46.272Z,99536.19
2022-11-23T10:37:14.580Z,99524.25
2022-11-23T10:39:41.231Z,99440.94
2022-11-23T10:42:30.351Z,99523.03
2022-11-23T10:44:58.364Z,99456.72
2022-11-23T10:47:35.659Z,99506.66
2022-11-23T10:50:02.275Z,99437.97
2022-11-23T10:52:31.461Z,99500.03
2022-11-23T10:55:01.456Z,99379.72
2022-11-23T10:57:28.044Z,99502.91
2022-11-23T11:00:01.113Z,99428.72
2022-11-23T11:02:28.288Z,99497.41
2022-11-23T11:05:46.265Z,99495.44
2022-11-23T11:08:18.403Z,99421.16
2022-11-23T11:11:05.753Z,99488.13
2022-11-23T11:13:41.583Z,99430.16
2022-11-23T11:16:32.973Z,99419.16
2022-11-23T11:19:00.636Z,99356.28
2022-11-23T11:21:35.632Z,99389.44
2022-11-23T11:24:14.868Z,99477.44
2022-11-23T11:26:59.561Z,99471.94
2022-11-23T11:29:40.212Z,99410.19
2022-11-23T11:32:13.236Z,99431.78
2022-11-23T11:34:49.293Z,99481.81
2022-11-23T11:37:24.855Z,99424.63
2022-11-23T11:39:57.638Z,99422.66
2022-11-23T11:42:34.826Z,99412.97
2022-11-23T11:45:05.136Z,99478.50
2022-11-23T11:47:41.555Z,99425.84
2022-11-23T11:50:19.277Z,99423.59
2022-11-23T11:52:50.752Z,99375.88
2022-11-23T11:55:41.295Z,99397.75
2022-11-23T11:58:14.146Z,99427.34
2022-11-23T12:00:45.038Z,99381.16
2022-11-23T12:03:25.903Z,99426.56
2022-11-23T12:05:55.719Z,99364.69
2022-11-23T12:08:33.176Z,99459.97
2022-11-23T12:11:02.099Z,99372.56
2022-11-23T12:13:37.009Z,99440.97
2022-11-23T12:16:26.228Z,99367.63
2022-11-23T12:19:20.490Z,99443.81
2022-11-23T12:22:07.527Z,99345.81
2022-11-23T12:24:54.722Z,99436.69
2022-11-23T12:27:48.192Z,99345.44
2022-11-23T12:30:32.060Z,99428.00
2022-11-23T12:33:22.329Z,99336.59
2022-11-23T12:36:12.364Z,99413.13
2022-11-23T12:38:54.321Z,99399.63
2022-11-23T12:41:35.730Z,99413.28
2022-11-23T12:44:16.209Z,99311.94
2022-11-23T12:46:59.827Z,99399.31
2022-11-23T12:49:39.976Z,99400.75
2022-11-23T12:52:21.582Z,99397.00
2022-11-23T12:55:19.899Z,99385.28
2022-11-23T12:57:58.841Z,99407.56
2022-11-23T13:00:31.959Z,99304.59
2022-11-23T13:02:58.466Z,99403.91
2022-11-23T13:05:49.204Z,99304.34
2022-11-23T13:08:39.475Z,99316.38
2022-11-23T13:11:30.601Z,99297.03
2022-11-23T13:14:09.371Z,99396.22
2022-11-23T13:16:45.317Z,99353.00
2022-11-23T13:19:35.592Z,99403.16
2022-11-23T13:22:06.577Z,99309.13
2022-11-23T13:24:58.702Z,99343.16
2022-11-23T13:27:31.310Z,99399.72
2022-11-23T13:30:01.026Z,99355.88
2022-11-23T13:32:39.649Z,99386.00
2022-11-23T13:35:21.564Z,99398.81
2022-11-23T13:37:54.193Z,99394.63
2022-11-23T13:40:22.189Z,99394.84
2022-11-23T13:42:51.812Z,99320.28
2022-11-23T13:45:21.990Z,99389.84
2022-11-23T13:48:09.153Z,99333.63
2022-11-23T13:50:59.622Z,99315.28
2022-11-23T13:53:28.105Z,99296.03
2022-11-23T13:55:58.100Z,99296.16
2022-11-23T13:58:24.598Z,99411.47
2022-11-23T14:00:59.478Z,99327.13
2022-11-23T14:03:49.270Z,99298.19
2022-11-23T14:06:46.066Z,99430.22
2022-11-23T14:09:24.861Z,99289.63
2022-11-23T14:11:55.753Z,99444.59
2022-11-23T14:14:27.721Z,99348.66
2022-11-23T14:17:09.264Z,99446.44
2022-11-23T14:19:56.631Z,99449.06
2022-11-23T14:22:45.264Z,99457.84
2022-11-23T14:25:50.091Z,99460.56
2022-11-23T14:28:23.720Z,99469.59
2022-11-23T14:31:06.155Z,99368.34
2022-11-23T14:33:44.302Z,99449.66
2022-11-23T14:36:48.484Z,99479.06
2022-11-23T14:39:47.456Z,99371.81
2022-11-23T14:45:22.982Z,99451.25
2022-11-23T14:47:52.932Z,99340.28
2022-11-23T14:50:36.909Z,99416.09
2022-11-23T14:53:12.027Z,99430.22
2022-11-23T14:55:43.090Z,99426.72
2022-11-23T14:58:15.160Z,99390.56
2022-11-23T15:00:45.800Z,99469.94
2022-11-23T15:06:24.468Z,99439.09
2022-11-23T15:08:56.962Z,99530.78
2022-11-23T15:11:28.782Z,99438.19
2022-11-23T15:13:57.760Z,99405.59
2022-11-23T15:16:24.300Z,99499.03
2022-11-23T15:18:51.816Z,99423.16
2022-11-23T15:21:26.974Z,99505.19
2022-11-23T15:23:58.173Z,99445.25
2022-11-23T15:26:47.489Z,99492.00
2022-11-23T15:29:52.252Z,99549.31
2022-11-23T15:32:31.128Z,99525.47
2022-11-23T15:35:02.736Z,99469.94
2022-11-23T15:37:31.494Z,99462.00
2022-11-23T15:39:58.260Z,99522.84
2022-11-23T15:42:26.448Z,99421.38
2022-11-23T15:44:55.723Z,99519.31
2022-11-23T15:47:31.928Z,99551.94
2022-11-23T15:50:07.925Z,99456.66
2022-11-23T15:52:37.400Z,99488.44
2022-11-23T15:55:09.745Z,99460.22
2022-11-23T15:57:38.303Z,99468.16
2022-11-23T16:00:06.466Z,99405.50
2022-11-23T16:02:39.985Z,99451.34
2022-11-23T16:05:12.246Z,99554.59
2022-11-23T16:07:57.534Z,99541.38
2022-11-23T16:10:27.167Z,99547.53
2022-11-23T16:12:55.890Z,99531.66
2022-11-23T16:15:30.524Z,99530.78
2022-11-23T16:17:57.154Z,99419.69
2022-11-23T16:20:25.256Z,99422.34
2022-11-23T16:22:53.194Z,99400.25
2022-11-23T16:25:28.481Z,99554.59
2022-11-23T16:28:16.784Z,99573.97
2022-11-23T16:30:48.065Z,99486.56
2022-11-23T16:33:19.867Z,99573.97
2022-11-23T16:35:47.370Z,99497.19
2022-11-23T16:38:13.964Z,99470.72
2022-11-23T16:40:41.873Z,99570.47
2022-11-23T16:43:12.652Z,99532.53
2022-11-23T16:45:41.006Z,99554.56
2022-11-23T16:48:25.758Z,99607.53
2022-11-23T16:50:54.417Z,99559.84
2022-11-23T16:53:22.321Z,99521.06
2022-11-23T16:55:54.212Z,99535.19
2022-11-23T16:58:22.082Z,99576.63
2022-11-23T17:00:49.278Z,99569.56
2022-11-23T17:03:20.129Z,99601.34
2022-11-23T17:05:47.773Z,99544.00
2022-11-23T17:08:19.789Z,99574.88
2022-11-23T17:10:49.274Z,99600.47
2022-11-23T17:13:22.836Z,99590.72
2022-11-23T17:15:51.439Z,99621.66
2022-11-23T17:18:19.153Z,99528.09
2022-11-23T17:20:45.672Z,99570.44
2022-11-23T17:23:12.261Z,99571.31
2022-11-23T17:25:40.390Z,99570.44
2022-11-23T17:28:14.715Z,99633.13
2022-11-23T17:30:41.911Z,99679.06
2022-11-23T17:33:11.356Z,99587.25
2022-11-23T17:35:38.498Z,99678.19
2022-11-23T17:38:05.435Z,99632.28
2022-11-23T17:40:33.061Z,99623.44
2022-11-23T17:43:00.641Z,99594.28
2022-11-23T17:45:27.420Z,99610.16
2022-11-23T17:47:54.091Z,99672.88
2022-11-23T17:50:21.717Z,99607.50
2022-11-23T17:52:48.302Z,99624.25
2022-11-23T17:55:15.362Z,99576.56
2022-11-23T17:57:42.388Z,99621.56
2022-11-23T18:00:18.653Z,99657.78
2022-11-23T18:02:45.474Z,99627.78
2022-11-23T18:05:17.831Z,99716.13
2022-11-23T18:07:48.539Z,99640.16
2022-11-23T18:10:15.607Z,99634.84
2022-11-23T18:12:42.185Z,99691.38
2022-11-23T18:15:09.132Z,99649.88
2022-11-23T18:17:35.839Z,99741.75
2022-11-23T18:20:03.867Z,99723.22
2022-11-23T18:22:30.951Z,99724.09
2022-11-23T18:24:57.443Z,99653.41
2022-11-23T18:27:23.968Z,99700.22
2022-11-23T18:29:50.599Z,99726.75
2022-11-23T18:32:17.381Z,99663.09
2022-11-23T18:34:43.905Z,99671.91
2022-11-23T18:37:10.633Z,99677.19
2022-11-23T18:39:37.158Z,99760.22
2022-11-23T18:42:05.889Z,99744.25
2022-11-23T18:44:32.768Z,99741.53
2022-11-23T18:46:59.316Z,99688.47
2022-11-23T18:49:25.957Z,99728.19
2022-11-23T18:51:52.485Z,99659.16
2022-11-23T18:54:19.934Z,99681.16
2022-11-23T18:56:46.461Z,99689.91
2022-11-23T18:59:35.016Z,99631.47
2022-11-23T19:02:00.781Z,99725.13
2022-11-23T19:04:27.496Z,99710.00
2022-11-23T19:06:53.996Z,99664.84
2022-11-23T19:09:20.458Z,99693.97
2022-11-23T19:11:46.986Z,99689.44
2022-11-23T19:14:13.554Z,99741.47
2022-11-23T19:16:41.081Z,99670.69
2022-11-23T19:19:08.136Z,99749.28
2022-11-23T19:21:36.034Z,99722.59
2022-11-23T19:24:03.577Z,99689.88
2022-11-23T19:26:31.035Z,99729.56
2022-11-23T19:28:58.424Z,99774.63
2022-11-23T19:31:27.621Z,99753.31
2022-11-23T19:33:58.341Z,99695.66
2022-11-23T19:36:25.355Z,99836.41
2022-11-23T19:38:52.229Z,99730.94
2022-11-23T19:41:18.975Z,99732.63
2022-11-23T19:43:45.801Z,99761.88
2022-11-23T19:46:14.358Z,99756.41
2022-11-23T19:48:42.042Z,99820.97
2022-11-23T19:51:13.372Z,99755.53
2022-11-23T19:53:41.103Z,99836.03
2022-11-23T19:56:14.620Z,99741.09
2022-11-23T19:58:42.250Z,99870.44
2022-11-23T20:01:11.522Z,99866.84
2022-11-23T20:03:39.942Z,99847.53
2022-11-23T20:06:10.021Z,99838.72
2022-11-23T20:08:37.965Z,99807.72
2022-11-23T20:11:17.143Z,99826.34
2022-11-23T20:13:44.012Z,99772.38
2022-11-23T20:16:15.734Z,99786.59
2022-11-23T20:18:43.695Z,99875.25
2022-11-23T20:21:16.325Z,99811.38
2022-11-23T20:23:43.513Z,99886.63
2022-11-23T20:26:14.458Z,99819.13
2022-11-23T20:28:44.537Z,99899.78
2022-11-23T20:31:20.180Z,99902.44
2022-11-23T20:33:50.232Z,99871.50
2022-11-23T20:36:43.195Z,99902.44
2022-11-23T20:39:10.507Z,99908.59
2022-11-23T20:41:38.212Z,99911.19
2022-11-23T20:44:11.809Z,99820.03
2022-11-23T20:47:01.693Z,99800.66
2022-11-23T20:49:25.556Z,99806.06
2022-11-23T20:51:52.047Z,99837.22
2022-11-23T20:54:18.566Z,99829.25
2022-11-23T20:56:45.109Z,99850.50
2022-11-23T20:59:12.420Z,99866.44
2022-11-23T21:01:40.572Z,99824.81
2022-11-23T21:04:08.792Z,99895.66
2022-11-23T21:06:39.024Z,99836.19
2022-11-23T21:09:07.654Z,99876.78
2022-11-23T21:11:52.439Z,99828.84
2022-11-23T21:14:21.424Z,99852.88
2022-11-23T21:16:53.318Z,99881.28
2022-11-23T21:19:25.110Z,99885.81
2022-11-23T21:21:52.531Z,99867.41
2022-11-23T21:24:19.557Z,99938.41
2022-11-23T21:26:46.447Z,99926.97
2022-11-23T21:29:15.361Z,99903.94
2022-11-23T21:31:44.374Z,99881.06
2022-11-23T21:34:19.207Z,99881.19
2022-11-23T21:36:46.121Z,99888.28
2022-11-23T21:39:13.500Z,99964.47
2022-11-23T21:41:41.282Z,99891.69
2022-11-23T21:44:08.882Z,99812.91
2022-11-23T21:46:37.497Z,99957.38
2022-11-23T21:49:04.939Z,99975.94
2022-11-23T21:51:31.890Z,99930.81
2022-11-23T21:54:03.783Z,99849.16
2022-11-23T21:56:30.491Z,99982.94
2022-11-23T21:58:57.584Z,99951.81
2022-11-23T22:01:25.653Z,99915.38
2022-11-23T22:03:58.323Z,99902.81
2022-11-23T22:06:24.913Z,99995.13
2022-11-23T22:08:54.282Z,99995.91
2022-11-23T22:11:28.886Z,99992.16
2022-11-23T22:14:00.245Z,99994.75
2022-11-23T22:16:29.634Z,100012.41
2022-11-23T22:18:57.092Z,100007.94
2022-11-23T22:21:26.704Z,99940.50
2022-11-23T22:23:55.196Z,99906.72
2022-11-23T22:26:23.001Z,99897.91
2022-11-23T22:28:51.232Z,99958.16
2022-11-23T22:31:21.037Z,99929.78
2022-11-23T22:33:48.235Z,99893.44
2022-11-23T22:36:17.677Z,99963.50
2022-11-23T22:38:45.010Z,99946.56
2022-11-23T22:41:14.111Z,99908.41
2022-11-23T22:43:40.815Z,99931.44
2022-11-23T22:46:12.514Z,99955.41
2022-11-23T22:48:41.177Z,100047.66
2022-11-23T22:51:13.992Z,100033.41
2022-11-23T22:53:45.111Z,99993.47
2022-11-23T22:56:16.747Z,99969.53
2022-11-23T22:58:47.319Z,100058.16
2022-11-23T23:01:16.317Z,100031.47
2022-11-23T23:03:43.717Z,99993.28
2022-11-23T23:06:19.049Z,99966.53
2022-11-23T23:08:47.206Z,99975.34
2022-11-23T23:11:15.630Z,100004.81
2022-11-23T23:13:42.523Z,100062.53
2022-11-23T23:16:13.675Z,100002.25
2022-11-23T23:18:42.635Z,100023.63
2022-11-23T23:21:11.974Z,99991.69
2022-11-23T23:23:38.932Z,100077.69
2022-11-23T23:26:06.448Z,100090.16
2022-11-23T23:28:35.184Z,100019.13
2022-11-23T23:31:05.219Z,100050.13
2022-11-23T23:33:33.252Z,100038.44
2022-11-23T23:36:20.900Z,100033.91
2022-11-23T23:38:47.906Z,100036.56
2022-11-23T23:41:14.941Z,100049.97
2022-11-23T23:43:42.743Z,100096.00
2022-11-23T23:46:11.763Z,100102.06
2022-11-23T23:48:39.797Z,99990.25
2022-11-23T23:51:25.003Z,100019.59
2022-11-23T23:53:52.681Z,100103.03
2022-11-23T23:56:25.030Z,100039.03
2022-11-23T23:58:52.134Z,100043.56
